sensor_id;sensor_type;location;lat;lon;timestamp;pressure;altitude;pressure_sealevel;temperature;humidity
10008;BME280;5043;41.766;26.204;2023-08-01T00:01:36;100295.38;;;23.71;81.74
10008;BME280;5043;41.766;26.204;2023-08-01T00:04:02;100309.25;;;23.68;81.90
10008;BME280;5043;41.766;26.204;2023-08-01T00:06:27;100364.03;;;23.95;82.21
10008;BME280;5043;41.766;26.204;2023-08-01T00:08:53;100365.69;;;24.03;82.34
10008;BME280;5043;41.766;26.204;2023-08-01T00:11:18;100367.13;;;23.99;82.66
10008;BME280;5043;41.766;26.204;2023-08-01T00:13:43;100366.72;;;23.88;83.36
10008;BME280;5043;41.766;26.204;2023-08-01T00:16:09;100365.03;;;23.74;83.51
10008;BME280;5043;41.766;26.204;2023-08-01T00:18:35;100322.28;;;23.58;83.66
10008;BME280;5043;41.766;26.204;2023-08-01T00:21:01;100360.88;;;23.78;83.88
10008;BME280;5043;41.766;26.204;2023-08-01T00:23:26;100351.28;;;23.56;84.22
10008;BME280;5043;41.766;26.204;2023-08-01T00:25:51;100360.88;;;23.72;84.39
10008;BME280;5043;41.766;26.204;2023-08-01T00:28:18;100360.03;;;23.71;84.25
10008;BME280;5043;41.766;26.204;2023-08-01T00:30:43;100292.72;;;23.24;84.60
10008;BME280;5043;41.766;26.204;2023-08-01T00:33:09;100361.88;;;23.64;84.35
10008;BME280;5043;41.766;26.204;2023-08-01T00:35:34;100351.25;;;23.43;84.41
10008;BME280;5043;41.766;26.204;2023-08-01T00:37:59;100364.13;;;23.54;84.27
10008;BME280;5043;41.766;26.204;2023-08-01T00:40:30;100359.63;;;23.68;84.33
10008;BME280;5043;41.766;26.204;2023-08-01T00:42:56;100361.88;;;23.71;84.71
10008;BME280;5043;41.766;26.204;2023-08-01T00:45:22;100348.34;;;23.45;84.84
10008;BME280;5043;41.766;26.204;2023-08-01T00:47:50;100287.94;;;23.19;85.48
10008;BME280;5043;41.766;26.204;2023-08-01T00:50:16;100310.91;;;23.09;87.02
10008;BME280;5043;41.766;26.204;2023-08-01T00:52:45;100263.28;;;22.62;87.92
10008;BME280;5043;41.766;26.204;2023-08-01T00:55:11;100360.72;;;23.33;88.11
10008;BME280;5043;41.766;26.204;2023-08-01T00:57:36;100349.25;;;23.17;88.13
10008;BME280;5043;41.766;26.204;2023-08-01T01:00:02;100364.78;;;23.22;88.14
10008;BME280;5043;41.766;26.204;2023-08-01T01:02:27;100331.59;;;23.02;88.66
10008;BME280;5043;41.766;26.204;2023-08-01T01:04:53;100333.16;;;22.90;89.03
10008;BME280;5043;41.766;26.204;2023-08-01T01:07:19;100279.88;;;22.72;89.74
10008;BME280;5043;41.766;26.204;2023-08-01T01:09:44;100282.91;;;22.63;90.22
10008;BME280;5043;41.766;26.204;2023-08-01T01:12:10;100352.41;;;22.87;90.74
10008;BME280;5043;41.766;26.204;2023-08-01T01:14:35;100332.66;;;22.73;91.98
10008;BME280;5043;41.766;26.204;2023-08-01T01:17:00;100293.69;;;22.35;92.78
10008;BME280;5043;41.766;26.204;2023-08-01T01:19:26;100319.09;;;22.32;93.35
10008;BME280;5043;41.766;26.204;2023-08-01T01:21:51;100355.19;;;22.44;93.50
10008;BME280;5043;41.766;26.204;2023-08-01T01:24:17;100342.44;;;22.53;93.47
10008;BME280;5043;41.766;26.204;2023-08-01T01:26:45;100368.41;;;22.67;93.16
10008;BME280;5043;41.766;26.204;2023-08-01T01:29:11;100350.41;;;22.68;92.66
10008;BME280;5043;41.766;26.204;2023-08-01T01:31:38;100338.78;;;22.61;92.37
10008;BME280;5043;41.766;26.204;2023-08-01T01:34:04;100329.78;;;22.53;92.50
10008;BME280;5043;41.766;26.204;2023-08-01T01:36:30;100344.16;;;22.61;92.79
10008;BME280;5043;41.766;26.204;2023-08-01T01:38:56;100311.72;;;22.41;92.58
10008;BME280;5043;41.766;26.204;2023-08-01T01:41:21;100342.53;;;22.66;92.58
10008;BME280;5043;41.766;26.204;2023-08-01T01:43:48;100319.28;;;22.58;92.13
10008;BME280;5043;41.766;26.204;2023-08-01T01:46:13;100335.31;;;22.67;91.55
10008;BME280;5043;41.766;26.204;2023-08-01T01:48:38;100314.66;;;22.46;90.87
10008;BME280;5043;41.766;26.204;2023-08-01T01:51:04;100335.09;;;22.68;90.13
10008;BME280;5043;41.766;26.204;2023-08-01T01:53:30;100273.59;;;22.31;90.11
10008;BME280;5043;41.766;26.204;2023-08-01T01:55:55;100304.94;;;22.45;89.75
10008;BME280;5043;41.766;26.204;2023-08-01T01:58:21;100293.63;;;22.28;90.17
10008;BME280;5043;41.766;26.204;2023-08-01T02:00:46;100331.19;;;22.43;89.80
10008;BME280;5043;41.766;26.204;2023-08-01T02:03:11;100275.50;;;22.09;90.02
10008;BME280;5043;41.766;26.204;2023-08-01T02:05:39;100336.00;;;22.26;90.22
10008;BME280;5043;41.766;26.204;2023-08-01T02:08:05;100333.31;;;22.26;90.07
10008;BME280;5043;41.766;26.204;2023-08-01T02:10:30;100374.91;;;22.30;90.68
10008;BME280;5043;41.766;26.204;2023-08-01T02:12:56;100370.97;;;22.26;90.49
10008;BME280;5043;41.766;26.204;2023-08-01T02:15:21;100350.38;;;22.12;90.99
10008;BME280;5043;41.766;26.204;2023-08-01T02:17:47;100353.81;;;22.06;91.43
10008;BME280;5043;41.766;26.204;2023-08-01T02:20:12;100256.13;;;21.50;91.76
10008;BME280;5043;41.766;26.204;2023-08-01T02:22:37;100322.69;;;21.76;91.96
10008;BME280;5043;41.766;26.204;2023-08-01T02:25:03;100355.94;;;22.11;92.00
10008;BME280;5043;41.766;26.204;2023-08-01T02:27:29;100357.03;;;21.95;92.06
10008;BME280;5043;41.766;26.204;2023-08-01T02:29:54;100337.06;;;22.04;91.82
10008;BME280;5043;41.766;26.204;2023-08-01T02:32:19;100353.31;;;22.17;91.69
10008;BME280;5043;41.766;26.204;2023-08-01T02:34:45;100370.59;;;22.08;91.99
10008;BME280;5043;41.766;26.204;2023-08-01T02:37:10;100364.81;;;22.11;91.96
10008;BME280;5043;41.766;26.204;2023-08-01T02:39:36;100333.25;;;21.92;91.93
10008;BME280;5043;41.766;26.204;2023-08-01T02:42:01;100353.25;;;22.11;91.85
10008;BME280;5043;41.766;26.204;2023-08-01T02:44:28;100335.78;;;22.00;91.38
10008;BME280;5043;41.766;26.204;2023-08-01T02:46:54;100304.09;;;21.74;91.45
10008;BME280;5043;41.766;26.204;2023-08-01T02:49:19;100348.84;;;22.03;91.29
10008;BME280;5043;41.766;26.204;2023-08-01T02:51:45;100336.13;;;21.76;91.53
10008;BME280;5043;41.766;26.204;2023-08-01T02:54:10;100349.75;;;21.89;92.00
10008;BME280;5043;41.766;26.204;2023-08-01T02:56:35;100360.16;;;21.99;92.09
10008;BME280;5043;41.766;26.204;2023-08-01T02:59:06;100348.16;;;21.80;92.20
10008;BME280;5043;41.766;26.204;2023-08-01T03:01:34;100392.78;;;21.81;92.30
10008;BME280;5043;41.766;26.204;2023-08-01T03:04:00;100368.72;;;21.87;92.53
10008;BME280;5043;41.766;26.204;2023-08-01T03:06:26;100383.53;;;21.83;92.62
10008;BME280;5043;41.766;26.204;2023-08-01T03:08:51;100363.19;;;21.89;92.46
10008;BME280;5043;41.766;26.204;2023-08-01T03:11:16;100296.81;;;21.47;92.55
10008;BME280;5043;41.766;26.204;2023-08-01T03:13:42;100246.41;;;21.07;92.99
10008;BME280;5043;41.766;26.204;2023-08-01T03:16:07;100338.16;;;21.53;93.23
10008;BME280;5043;41.766;26.204;2023-08-01T03:18:35;100360.06;;;21.71;93.50
10008;BME280;5043;41.766;26.204;2023-08-01T03:21:00;100393.56;;;21.75;93.36
10008;BME280;5043;41.766;26.204;2023-08-01T03:23:27;100387.56;;;21.73;93.65
10008;BME280;5043;41.766;26.204;2023-08-01T03:25:52;100394.13;;;21.70;93.45
10008;BME280;5043;41.766;26.204;2023-08-01T03:28:18;100350.41;;;21.41;93.21
10008;BME280;5043;41.766;26.204;2023-08-01T03:30:43;100372.81;;;21.69;93.59
10008;BME280;5043;41.766;26.204;2023-08-01T03:33:09;100377.50;;;21.60;93.82
10008;BME280;5043;41.766;26.204;2023-08-01T03:35:34;100343.16;;;21.56;94.01
10008;BME280;5043;41.766;26.204;2023-08-01T03:37:59;100372.34;;;21.80;95.43
10008;BME280;5043;41.766;26.204;2023-08-01T03:40:25;100303.22;;;21.32;96.18
10008;BME280;5043;41.766;26.204;2023-08-01T03:42:50;100395.78;;;21.71;96.05
10008;BME280;5043;41.766;26.204;2023-08-01T03:45:16;100309.50;;;21.39;96.16
10008;BME280;5043;41.766;26.204;2023-08-01T03:47:41;100286.22;;;21.24;96.25
10008;BME280;5043;41.766;26.204;2023-08-01T03:50:07;100410.25;;;21.85;96.61
10008;BME280;5043;41.766;26.204;2023-08-01T03:52:32;100425.66;;;21.83;96.78
10008;BME280;5043;41.766;26.204;2023-08-01T03:54:58;100392.88;;;21.52;99.08
10008;BME280;5043;41.766;26.204;2023-08-01T03:57:23;100344.19;;;21.19;99.70
10008;BME280;5043;41.766;26.204;2023-08-01T03:59:49;100387.78;;;21.57;99.45
10008;BME280;5043;41.766;26.204;2023-08-01T04:02:14;100399.59;;;21.62;98.96
10008;BME280;5043;41.766;26.204;2023-08-01T04:04:39;100353.91;;;21.56;98.03
10008;BME280;5043;41.766;26.204;2023-08-01T04:07:05;100397.84;;;21.84;97.74
10008;BME280;5043;41.766;26.204;2023-08-01T04:09:30;100374.50;;;21.70;97.77
10008;BME280;5043;41.766;26.204;2023-08-01T04:11:56;100388.91;;;21.83;97.89
10008;BME280;5043;41.766;26.204;2023-08-01T04:14:22;100399.69;;;21.69;98.51
10008;BME280;5043;41.766;26.204;2023-08-01T04:16:48;100393.72;;;21.88;98.21
10008;BME280;5043;41.766;26.204;2023-08-01T04:19:13;100394.28;;;21.83;97.27
10008;BME280;5043;41.766;26.204;2023-08-01T04:21:39;100405.41;;;21.30;98.86
10008;BME280;5043;41.766;26.204;2023-08-01T04:24:04;100401.81;;;21.38;99.78
10008;BME280;5043;41.766;26.204;2023-08-01T04:26:30;100410.09;;;21.57;98.61
10008;BME280;5043;41.766;26.204;2023-08-01T04:28:55;100388.81;;;21.56;98.26
10008;BME280;5043;41.766;26.204;2023-08-01T04:31:20;100389.84;;;21.76;97.75
10008;BME280;5043;41.766;26.204;2023-08-01T04:33:46;100378.66;;;21.87;96.18
10008;BME280;5043;41.766;26.204;2023-08-01T04:36:11;100323.72;;;21.54;95.04
10008;BME280;5043;41.766;26.204;2023-08-01T04:38:37;100398.28;;;22.09;94.77
10008;BME280;5043;41.766;26.204;2023-08-01T04:41:02;100399.91;;;22.03;94.95
10008;BME280;5043;41.766;26.204;2023-08-01T04:43:28;100354.34;;;21.80;94.93
10008;BME280;5043;41.766;26.204;2023-08-01T04:45:53;100406.66;;;21.99;95.53
10008;BME280;5043;41.766;26.204;2023-08-01T04:48:19;100403.75;;;22.15;95.16
10008;BME280;5043;41.766;26.204;2023-08-01T04:50:44;100415.38;;;22.22;94.37
10008;BME280;5043;41.766;26.204;2023-08-01T04:53:10;100417.34;;;22.35;93.96
10008;BME280;5043;41.766;26.204;2023-08-01T04:55:37;100440.06;;;22.53;93.89
10008;BME280;5043;41.766;26.204;2023-08-01T04:58:02;100420.56;;;22.66;93.70
10008;BME280;5043;41.766;26.204;2023-08-01T05:00:28;100378.63;;;22.50;94.00
10008;BME280;5043;41.766;26.204;2023-08-01T05:02:53;100409.78;;;22.66;94.34
10008;BME280;5043;41.766;26.204;2023-08-01T05:05:18;100429.47;;;22.67;93.79
10008;BME280;5043;41.766;26.204;2023-08-01T05:07:44;100356.31;;;22.29;93.95
10008;BME280;5043;41.766;26.204;2023-08-01T05:10:09;100377.72;;;22.43;94.58
10008;BME280;5043;41.766;26.204;2023-08-01T05:12:35;100432.41;;;22.72;95.49
10008;BME280;5043;41.766;26.204;2023-08-01T05:15:00;100413.78;;;22.77;94.29
10008;BME280;5043;41.766;26.204;2023-08-01T05:17:26;100436.41;;;23.16;93.10
10008;BME280;5043;41.766;26.204;2023-08-01T05:19:51;100453.00;;;23.20;92.74
10008;BME280;5043;41.766;26.204;2023-08-01T05:22:17;100446.50;;;23.36;91.14
10008;BME280;5043;41.766;26.204;2023-08-01T05:24:42;100389.63;;;23.17;90.95
10008;BME280;5043;41.766;26.204;2023-08-01T05:27:07;100445.88;;;23.40;91.03
10008;BME280;5043;41.766;26.204;2023-08-01T05:29:33;100415.84;;;23.37;91.06
10008;BME280;5043;41.766;26.204;2023-08-01T05:31:58;100437.66;;;23.48;90.69
10008;BME280;5043;41.766;26.204;2023-08-01T05:34:24;100408.03;;;23.48;90.25
10008;BME280;5043;41.766;26.204;2023-08-01T05:36:49;100400.81;;;23.55;89.94
10008;BME280;5043;41.766;26.204;2023-08-01T05:39:15;100449.06;;;24.04;89.63
10008;BME280;5043;41.766;26.204;2023-08-01T05:41:42;100455.16;;;24.19;88.71
10008;BME280;5043;41.766;26.204;2023-08-01T05:44:07;100469.09;;;24.36;87.79
10008;BME280;5043;41.766;26.204;2023-08-01T05:46:33;100440.66;;;24.46;86.22
10008;BME280;5043;41.766;26.204;2023-08-01T05:48:58;100429.22;;;24.51;85.60
10008;BME280;5043;41.766;26.204;2023-08-01T05:51:24;100443.78;;;24.76;85.13
10008;BME280;5043;41.766;26.204;2023-08-01T05:53:49;100433.00;;;24.89;84.10
10008;BME280;5043;41.766;26.204;2023-08-01T05:56:15;100441.88;;;25.09;83.61
10008;BME280;5043;41.766;26.204;2023-08-01T05:58:40;100436.03;;;25.19;83.04
10008;BME280;5043;41.766;26.204;2023-08-01T06:01:06;100464.34;;;25.03;84.29
10008;BME280;5043;41.766;26.204;2023-08-01T06:03:31;100441.06;;;25.02;84.88
10008;BME280;5043;41.766;26.204;2023-08-01T06:05:56;100434.44;;;24.98;83.91
10008;BME280;5043;41.766;26.204;2023-08-01T06:08:22;100439.53;;;25.33;83.35
10008;BME280;5043;41.766;26.204;2023-08-01T06:10:47;100436.59;;;25.54;82.46
10008;BME280;5043;41.766;26.204;2023-08-01T06:13:13;100424.38;;;25.38;82.13
10008;BME280;5043;41.766;26.204;2023-08-01T06:15:38;100438.84;;;25.63;82.43
10008;BME280;5043;41.766;26.204;2023-08-01T06:18:04;100420.56;;;25.59;82.53
10008;BME280;5043;41.766;26.204;2023-08-01T06:20:29;100382.78;;;25.39;82.45
10008;BME280;5043;41.766;26.204;2023-08-01T06:22:55;100425.50;;;25.68;83.01
10008;BME280;5043;41.766;26.204;2023-08-01T06:25:20;100419.72;;;25.65;83.40
10008;BME280;5043;41.766;26.204;2023-08-01T06:27:46;100418.78;;;25.84;83.13
10008;BME280;5043;41.766;26.204;2023-08-01T06:30:11;100374.72;;;25.77;81.75
10008;BME280;5043;41.766;26.204;2023-08-01T06:32:37;100419.28;;;26.06;80.39
10008;BME280;5043;41.766;26.204;2023-08-01T06:35:04;100434.63;;;26.18;80.04
10008;BME280;5043;41.766;26.204;2023-08-01T06:37:29;100443.41;;;26.14;78.54
10008;BME280;5043;41.766;26.204;2023-08-01T06:39:56;100422.16;;;26.17;77.48
10008;BME280;5043;41.766;26.204;2023-08-01T06:42:22;100413.16;;;26.23;77.25
10008;BME280;5043;41.766;26.204;2023-08-01T06:44:47;100426.72;;;26.48;74.95
10008;BME280;5043;41.766;26.204;2023-08-01T06:47:13;100384.06;;;26.43;74.27
10008;BME280;5043;41.766;26.204;2023-08-01T06:49:38;100427.28;;;26.81;72.88
10008;BME280;5043;41.766;26.204;2023-08-01T06:52:04;100439.59;;;27.02;71.38
10008;BME280;5043;41.766;26.204;2023-08-01T06:54:29;100380.31;;;26.94;71.38
10008;BME280;5043;41.766;26.204;2023-08-01T06:56:55;100416.22;;;27.44;70.14
10008;BME280;5043;41.766;26.204;2023-08-01T06:59:20;100408.91;;;27.62;69.70
10008;BME280;5043;41.766;26.204;2023-08-01T07:01:46;100443.50;;;27.97;68.21
10008;BME280;5043;41.766;26.204;2023-08-01T07:04:12;100429.91;;;28.15;66.93
10008;BME280;5043;41.766;26.204;2023-08-01T07:06:38;100400.31;;;28.25;66.31
10008;BME280;5043;41.766;26.204;2023-08-01T07:09:03;100395.06;;;28.41;64.31
10008;BME280;5043;41.766;26.204;2023-08-01T07:11:29;100425.19;;;28.86;63.61
10008;BME280;5043;41.766;26.204;2023-08-01T07:13:54;100432.16;;;29.05;61.53
10008;BME280;5043;41.766;26.204;2023-08-01T07:16:20;100438.69;;;29.04;62.41
10008;BME280;5043;41.766;26.204;2023-08-01T07:18:45;100429.81;;;29.09;61.57
10008;BME280;5043;41.766;26.204;2023-08-01T07:21:13;100410.78;;;29.09;61.28
10008;BME280;5043;41.766;26.204;2023-08-01T07:23:38;100432.16;;;29.28;60.35
10008;BME280;5043;41.766;26.204;2023-08-01T07:26:04;100420.34;;;29.46;59.54
10008;BME280;5043;41.766;26.204;2023-08-01T07:28:29;100428.66;;;29.68;59.33
10008;BME280;5043;41.766;26.204;2023-08-01T07:31:03;100421.81;;;29.25;59.67
10008;BME280;5043;41.766;26.204;2023-08-01T07:33:29;100411.72;;;29.03;61.01
10008;BME280;5043;41.766;26.204;2023-08-01T07:35:55;100416.56;;;29.36;60.27
10008;BME280;5043;41.766;26.204;2023-08-01T07:38:20;100402.47;;;29.50;58.38
10008;BME280;5043;41.766;26.204;2023-08-01T07:40:46;100365.44;;;29.09;58.81
10008;BME280;5043;41.766;26.204;2023-08-01T07:43:11;100438.59;;;29.62;57.54
10008;BME280;5043;41.766;26.204;2023-08-01T07:45:38;100426.53;;;29.70;57.37
10008;BME280;5043;41.766;26.204;2023-08-01T07:48:04;100411.03;;;29.82;56.78
10008;BME280;5043;41.766;26.204;2023-08-01T07:50:29;100407.41;;;29.93;56.38
10008;BME280;5043;41.766;26.204;2023-08-01T07:52:55;100449.59;;;30.07;55.37
10008;BME280;5043;41.766;26.204;2023-08-01T07:55:21;100418.25;;;30.33;55.69
10008;BME280;5043;41.766;26.204;2023-08-01T07:57:47;100413.41;;;30.23;53.98
10008;BME280;5043;41.766;26.204;2023-08-01T08:00:13;100363.16;;;30.14;53.62
10008;BME280;5043;41.766;26.204;2023-08-01T08:02:40;100433.00;;;30.37;53.13
10008;BME280;5043;41.766;26.204;2023-08-01T08:05:06;100442.03;;;30.54;51.90
10008;BME280;5043;41.766;26.204;2023-08-01T08:07:31;100355.22;;;29.96;52.25
10008;BME280;5043;41.766;26.204;2023-08-01T08:09:57;100405.78;;;30.37;51.83
10008;BME280;5043;41.766;26.204;2023-08-01T08:12:23;100407.84;;;30.46;51.06
10008;BME280;5043;41.766;26.204;2023-08-01T08:14:48;100385.56;;;30.33;50.48
10008;BME280;5043;41.766;26.204;2023-08-01T08:17:14;100405.03;;;30.41;50.17
10008;BME280;5043;41.766;26.204;2023-08-01T08:19:40;100387.97;;;30.18;50.79
10008;BME280;5043;41.766;26.204;2023-08-01T08:22:05;100351.59;;;30.07;51.89
10008;BME280;5043;41.766;26.204;2023-08-01T08:24:31;100383.41;;;30.51;50.18
10008;BME280;5043;41.766;26.204;2023-08-01T08:26:57;100375.06;;;30.41;49.77
10008;BME280;5043;41.766;26.204;2023-08-01T08:29:22;100381.91;;;30.60;48.27
10008;BME280;5043;41.766;26.204;2023-08-01T08:31:48;100344.53;;;30.56;47.44
10008;BME280;5043;41.766;26.204;2023-08-01T08:34:13;100388.84;;;30.35;48.02
10008;BME280;5043;41.766;26.204;2023-08-01T08:36:39;100388.34;;;30.21;48.22
10008;BME280;5043;41.766;26.204;2023-08-01T08:39:04;100389.78;;;30.40;48.63
10008;BME280;5043;41.766;26.204;2023-08-01T08:41:35;100391.66;;;30.56;47.75
10008;BME280;5043;41.766;26.204;2023-08-01T08:44:04;100393.22;;;30.69;47.38
10008;BME280;5043;41.766;26.204;2023-08-01T08:46:33;100362.19;;;30.70;46.71
10008;BME280;5043;41.766;26.204;2023-08-01T08:49:02;100418.94;;;30.90;46.12
10008;BME280;5043;41.766;26.204;2023-08-01T08:51:28;100339.66;;;30.41;45.61
10008;BME280;5043;41.766;26.204;2023-08-01T08:53:54;100395.13;;;30.69;46.20
10008;BME280;5043;41.766;26.204;2023-08-01T08:56:20;100382.72;;;30.78;45.21
10008;BME280;5043;41.766;26.204;2023-08-01T08:58:45;100369.69;;;30.96;44.19
10008;BME280;5043;41.766;26.204;2023-08-01T09:01:12;100381.31;;;31.08;44.18
10008;BME280;5043;41.766;26.204;2023-08-01T09:03:38;100299.41;;;30.82;43.20
10008;BME280;5043;41.766;26.204;2023-08-01T09:06:31;100371.34;;;31.41;43.88
10008;BME280;5043;41.766;26.204;2023-08-01T09:11:46;100325.91;;;31.46;42.95
10008;BME280;5043;41.766;26.204;2023-08-01T09:14:12;100387.31;;;31.75;42.68
10008;BME280;5043;41.766;26.204;2023-08-01T09:16:39;100303.47;;;31.44;42.17
10008;BME280;5043;41.766;26.204;2023-08-01T09:19:06;100367.69;;;32.00;41.29
10008;BME280;5043;41.766;26.204;2023-08-01T09:21:33;100354.03;;;32.00;40.20
10008;BME280;5043;41.766;26.204;2023-08-01T09:24:22;100311.56;;;31.87;38.87
10008;BME280;5043;41.766;26.204;2023-08-01T09:26:49;100349.63;;;32.26;38.42
10008;BME280;5043;41.766;26.204;2023-08-01T09:29:20;100348.09;;;32.45;39.23
10008;BME280;5043;41.766;26.204;2023-08-01T09:31:45;100346.66;;;32.32;37.96
10008;BME280;5043;41.766;26.204;2023-08-01T09:34:25;100339.75;;;31.93;37.98
10008;BME280;5043;41.766;26.204;2023-08-01T09:36:51;100353.88;;;31.63;38.99
10008;BME280;5043;41.766;26.204;2023-08-01T09:39:22;100339.53;;;31.46;39.20
10008;BME280;5043;41.766;26.204;2023-08-01T09:41:58;100337.38;;;31.48;39.04
10008;BME280;5043;41.766;26.204;2023-08-01T09:44:25;100208.09;;;31.01;39.14
10008;BME280;5043;41.766;26.204;2023-08-01T09:47:03;100345.13;;;32.15;39.10
10008;BME280;5043;41.766;26.204;2023-08-01T09:49:30;100339.84;;;32.35;38.19
10008;BME280;5043;41.766;26.204;2023-08-01T09:51:56;100324.88;;;32.42;38.14
10008;BME280;5043;41.766;26.204;2023-08-01T09:54:23;100316.38;;;32.39;37.78
10008;BME280;5043;41.766;26.204;2023-08-01T09:56:51;100336.63;;;32.80;37.26
10008;BME280;5043;41.766;26.204;2023-08-01T09:59:22;100331.59;;;33.03;37.19
10008;BME280;5043;41.766;26.204;2023-08-01T10:01:49;100316.56;;;33.11;36.47
10008;BME280;5043;41.766;26.204;2023-08-01T10:04:29;100325.63;;;33.16;36.63
10008;BME280;5043;41.766;26.204;2023-08-01T10:06:59;100307.25;;;33.07;37.11
10008;BME280;5043;41.766;26.204;2023-08-01T10:09:25;100254.91;;;32.83;35.70
10008;BME280;5043;41.766;26.204;2023-08-01T10:11:56;100263.09;;;32.36;36.43
10008;BME280;5043;41.766;26.204;2023-08-01T10:14:21;100288.22;;;32.38;36.47
10008;BME280;5043;41.766;26.204;2023-08-01T10:16:47;100303.38;;;32.51;36.17
10008;BME280;5043;41.766;26.204;2023-08-01T10:19:14;100296.31;;;32.60;35.89
10008;BME280;5043;41.766;26.204;2023-08-01T10:21:41;100271.25;;;32.73;36.06
10008;BME280;5043;41.766;26.204;2023-08-01T10:24:08;100270.25;;;32.94;35.63
10008;BME280;5043;41.766;26.204;2023-08-01T10:26:34;100231.91;;;32.79;35.60
10008;BME280;5043;41.766;26.204;2023-08-01T10:29:00;100291.78;;;33.43;35.25
10008;BME280;5043;41.766;26.204;2023-08-01T10:31:27;100288.56;;;33.81;34.74
10008;BME280;5043;41.766;26.204;2023-08-01T10:34:04;100282.84;;;33.87;35.11
10008;BME280;5043;41.766;26.204;2023-08-01T10:36:30;100259.03;;;34.08;34.21
10008;BME280;5043;41.766;26.204;2023-08-01T10:39:04;100279.28;;;34.22;33.76
10008;BME280;5043;41.766;26.204;2023-08-01T10:41:35;100266.16;;;34.04;33.17
10008;BME280;5043;41.766;26.204;2023-08-01T10:44:08;100294.91;;;34.17;33.13
10008;BME280;5043;41.766;26.204;2023-08-01T10:46:51;100257.38;;;34.27;33.16
10008;BME280;5043;41.766;26.204;2023-08-01T10:49:18;100244.19;;;34.39;33.13
10008;BME280;5043;41.766;26.204;2023-08-01T10:51:45;100199.56;;;34.19;32.59
10008;BME280;5043;41.766;26.204;2023-08-01T10:54:24;100171.66;;;33.97;32.12
10008;BME280;5043;41.766;26.204;2023-08-01T10:56:53;100246.28;;;34.73;31.51
10008;BME280;5043;41.766;26.204;2023-08-01T10:59:19;100236.34;;;34.87;30.92
10008;BME280;5043;41.766;26.204;2023-08-01T11:01:51;100237.28;;;35.26;30.18
10008;BME280;5043;41.766;26.204;2023-08-01T11:04:18;100202.84;;;35.44;29.63
10008;BME280;5043;41.766;26.204;2023-08-01T11:06:54;100228.41;;;35.78;29.00
10008;BME280;5043;41.766;26.204;2023-08-01T11:09:24;100249.69;;;35.96;28.63
10008;BME280;5043;41.766;26.204;2023-08-01T11:11:55;100192.81;;;35.68;29.36
10008;BME280;5043;41.766;26.204;2023-08-01T11:14:23;100208.59;;;35.81;29.78
10008;BME280;5043;41.766;26.204;2023-08-01T11:16:49;100186.38;;;35.44;30.46
10008;BME280;5043;41.766;26.204;2023-08-01T11:19:23;100234.41;;;35.46;30.99
10008;BME280;5043;41.766;26.204;2023-08-01T11:21:50;100217.19;;;35.36;30.56
10008;BME280;5043;41.766;26.204;2023-08-01T11:24:17;100167.44;;;35.42;30.18
10008;BME280;5043;41.766;26.204;2023-08-01T11:26:45;100130.91;;;35.47;30.10
10008;BME280;5043;41.766;26.204;2023-08-01T11:29:11;100157.25;;;35.81;29.14
10008;BME280;5043;41.766;26.204;2023-08-01T11:31:37;100213.41;;;35.99;29.06
10008;BME280;5043;41.766;26.204;2023-08-01T11:34:04;100217.56;;;35.63;29.42
10008;BME280;5043;41.766;26.204;2023-08-01T11:36:30;100153.16;;;35.01;30.31
10008;BME280;5043;41.766;26.204;2023-08-01T11:38:57;100201.59;;;35.65;29.94
10008;BME280;5043;41.766;26.204;2023-08-01T11:41:24;100186.13;;;36.08;29.05
10008;BME280;5043;41.766;26.204;2023-08-01T11:43:50;100188.06;;;36.31;28.73
10008;BME280;5043;41.766;26.204;2023-08-01T11:46:16;100207.31;;;37.02;27.39
10008;BME280;5043;41.766;26.204;2023-08-01T11:48:45;100211.63;;;37.45;27.16
10008;BME280;5043;41.766;26.204;2023-08-01T11:51:12;100182.16;;;37.78;25.77
10008;BME280;5043;41.766;26.204;2023-08-01T11:53:37;100188.47;;;37.28;26.63
10008;BME280;5043;41.766;26.204;2023-08-01T11:56:04;100180.50;;;37.45;25.78
10008;BME280;5043;41.766;26.204;2023-08-01T11:58:34;100187.19;;;37.57;26.16
10008;BME280;5043;41.766;26.204;2023-08-01T12:03:29;100171.47;;;36.41;27.78
10008;BME280;5043;41.766;26.204;2023-08-01T12:06:05;100127.03;;;36.76;27.51
10008;BME280;5043;41.766;26.204;2023-08-01T12:08:33;100161.34;;;37.40;27.11
10008;BME280;5043;41.766;26.204;2023-08-01T12:10:59;100178.13;;;37.70;26.26
10008;BME280;5043;41.766;26.204;2023-08-01T12:13:25;100059.16;;;37.22;26.07
10008;BME280;5043;41.766;26.204;2023-08-01T12:15:53;100139.34;;;38.13;25.90
10008;BME280;5043;41.766;26.204;2023-08-01T12:18:26;100121.59;;;38.32;25.41
10008;BME280;5043;41.766;26.204;2023-08-01T12:20:52;100140.72;;;37.00;26.80
10008;BME280;5043;41.766;26.204;2023-08-01T12:23:18;100144.59;;;37.82;26.30
10008;BME280;5043;41.766;26.204;2023-08-01T12:25:44;100100.97;;;38.30;24.78
10008;BME280;5043;41.766;26.204;2023-08-01T12:28:10;100119.44;;;39.06;24.60
10008;BME280;5043;41.766;26.204;2023-08-01T12:30:39;100139.56;;;39.51;23.90
10008;BME280;5043;41.766;26.204;2023-08-01T12:33:05;100120.69;;;39.97;22.89
10008;BME280;5043;41.766;26.204;2023-08-01T12:35:31;100140.28;;;40.57;22.25
10008;BME280;5043;41.766;26.204;2023-08-01T12:37:56;100135.59;;;40.83;21.54
10008;BME280;5043;41.766;26.204;2023-08-01T12:40:21;100089.03;;;40.94;21.01
10008;BME280;5043;41.766;26.204;2023-08-01T12:42:47;100114.75;;;41.37;20.77
10008;BME280;5043;41.766;26.204;2023-08-01T12:45:12;100124.19;;;41.53;20.90
10008;BME280;5043;41.766;26.204;2023-08-01T12:47:38;100125.84;;;40.86;21.08
10008;BME280;5043;41.766;26.204;2023-08-01T12:50:04;100122.28;;;41.02;20.92
10008;BME280;5043;41.766;26.204;2023-08-01T12:52:30;100073.56;;;40.93;21.07